PAKW

Klawock Airport

Airport
ICAO code
PAKW
IATA Code
KLW
Summary
ICAO Region
NAM
ICAO Territory
Location

, Alaska

Serving
Klawock
Elevation
80 ft
Coordinates
55° 34' 45" N , 133° 4' 34" W
Metar
PAKW 251853Z AUTO 00000KT 9SM OVC015 15/12 A3019 RMK AO2 SLP222 T01500122 TSNO

Runways

Designator Length Width Surface Rops
2/20 1524 30 ASP No/No

Airport map

Aerial View

SKYbrary Partners:

Safety knowledge contributed by: